Terminal Aerodrome Forecast
Issued by NWS

Home | Current Version | Previous Version | Text Only | Print | Product List | Glossary On
Versions: 1 2 3 4 5 6 7 8 9 10 11 12 13 14 15 16 17 18 19 20 21 22
000
FTUS45 KFGZ 281100
TAFPRC
TAF
KPRC 281124Z 2812/2912 VRB05KT P6SM SCT090 BKN140
     FM281800 22010G20KT P6SM SCT080 BKN110
      TEMPO 2820/2824 VRB15G30KT 4SM TSRA BKN070CB
     FM290000 VRB05KT P6SM BKN070 BKN100
      TEMPO 2900/2904 VRB15G25KT 5SM TSRA BKN070CB OVC090=

USA.gov is the U.S. government's official web portal to all federal, state and local government web resources and services.